METAR Data

Data at: 0520 UTC 20 Oct 2018

METAR for:KATL (Atlanta/Hartsfield-J, GA, US)
Text:KATL 200452Z 20003KT 10SM BKN090 BKN120 BKN250 16/13 A3012 RMK AO2 SLP198 T01560133 401890117
Temperature: 15.6°C ( 60°F)
Dewpoint: 13.3°C ( 56°F) [RH = 86%]
Pressure (altimeter):30.12 inches Hg (1020.1 mb) [Sea level pressure: 1019.8 mb]
Winds:from the SSW (200 degrees) at 3 MPH (3 knots; 1.5 m/s)
Visibility:10 or more sm (16+ km)
Ceiling:9000 feet AGL
Clouds: broken clouds at 9000 feet AGL, broken clouds at 12000 feet AGL, broken clouds at 25000 feet AGL